sensor_id;sensor_type;location;lat;lon;timestamp;pressure;altitude;pressure_sealevel;temperature;humidity
11806;BME280;5960;42.602;23.482;2022-09-25T00:01:38;93735.84;;;11.56;60.38
11806;BME280;5960;42.602;23.482;2022-09-25T00:04:05;93739.13;;;11.58;60.40
11806;BME280;5960;42.602;23.482;2022-09-25T00:06:31;93737.81;;;11.48;60.30
11806;BME280;5960;42.602;23.482;2022-09-25T00:08:59;93727.88;;;11.28;60.77
11806;BME280;5960;42.602;23.482;2022-09-25T00:11:29;93726.59;;;11.24;61.05
11806;BME280;5960;42.602;23.482;2022-09-25T00:13:57;93728.66;;;11.28;60.41
11806;BME280;5960;42.602;23.482;2022-09-25T00:16:26;93718.13;;;11.28;60.78
11806;BME280;5960;42.602;23.482;2022-09-25T00:18:54;93715.41;;;11.22;60.61
11806;BME280;5960;42.602;23.482;2022-09-25T00:21:38;93722.19;;;11.09;61.64
11806;BME280;5960;42.602;23.482;2022-09-25T00:24:08;93712.63;;;11.23;60.90
11806;BME280;5960;42.602;23.482;2022-09-25T00:26:36;93717.56;;;11.11;61.21
11806;BME280;5960;42.602;23.482;2022-09-25T00:29:05;93722.81;;;11.11;61.15
11806;BME280;5960;42.602;23.482;2022-09-25T00:31:32;93723.34;;;11.07;61.87
11806;BME280;5960;42.602;23.482;2022-09-25T00:34:00;93712.75;;;11.00;62.29
11806;BME280;5960;42.602;23.482;2022-09-25T00:36:28;93712.34;;;11.18;61.71
11806;BME280;5960;42.602;23.482;2022-09-25T00:38:54;93711.59;;;11.24;61.55
11806;BME280;5960;42.602;23.482;2022-09-25T00:41:25;93710.16;;;11.22;61.48
11806;BME280;5960;42.602;23.482;2022-09-25T00:43:54;93699.53;;;11.15;61.39
11806;BME280;5960;42.602;23.482;2022-09-25T00:46:23;93707.88;;;11.19;61.21
11806;BME280;5960;42.602;23.482;2022-09-25T00:48:56;93708.06;;;11.17;61.31
11806;BME280;5960;42.602;23.482;2022-09-25T00:51:28;93706.00;;;11.12;61.48
11806;BME280;5960;42.602;23.482;2022-09-25T00:53:57;93704.38;;;11.11;61.51
11806;BME280;5960;42.602;23.482;2022-09-25T00:56:29;93711.81;;;11.08;61.39
11806;BME280;5960;42.602;23.482;2022-09-25T00:58:57;93709.06;;;11.16;61.07
11806;BME280;5960;42.602;23.482;2022-09-25T01:01:24;93705.91;;;11.06;61.55
11806;BME280;5960;42.602;23.482;2022-09-25T01:03:51;93705.53;;;11.09;61.60
11806;BME280;5960;42.602;23.482;2022-09-25T01:06:21;93696.47;;;11.11;61.44
11806;BME280;5960;42.602;23.482;2022-09-25T01:08:48;93698.69;;;10.93;61.47
11806;BME280;5960;42.602;23.482;2022-09-25T01:11:16;93698.84;;;10.91;62.12
11806;BME280;5960;42.602;23.482;2022-09-25T01:13:44;93699.06;;;10.90;61.98
11806;BME280;5960;42.602;23.482;2022-09-25T01:16:16;93696.50;;;10.81;62.39
11806;BME280;5960;42.602;23.482;2022-09-25T01:18:55;93690.44;;;10.81;61.86
11806;BME280;5960;42.602;23.482;2022-09-25T01:21:32;93686.34;;;10.78;61.84
11806;BME280;5960;42.602;23.482;2022-09-25T01:24:26;93688.97;;;10.78;62.00
11806;BME280;5960;42.602;23.482;2022-09-25T01:27:11;93689.16;;;10.77;62.26
11806;BME280;5960;42.602;23.482;2022-09-25T01:29:48;93684.44;;;10.72;61.87
11806;BME280;5960;42.602;23.482;2022-09-25T01:32:21;93691.63;;;10.63;62.31
11806;BME280;5960;42.602;23.482;2022-09-25T01:34:56;93695.19;;;10.56;62.54
11806;BME280;5960;42.602;23.482;2022-09-25T01:37:28;93695.38;;;10.54;62.53
11806;BME280;5960;42.602;23.482;2022-09-25T01:40:05;93686.00;;;10.51;62.79
11806;BME280;5960;42.602;23.482;2022-09-25T01:42:38;93692.03;;;10.45;62.91
11806;BME280;5960;42.602;23.482;2022-09-25T01:45:12;93690.75;;;10.41;63.48
11806;BME280;5960;42.602;23.482;2022-09-25T01:47:44;93692.03;;;10.45;63.24
11806;BME280;5960;42.602;23.482;2022-09-25T01:50:16;93694.53;;;10.53;62.78
11806;BME280;5960;42.602;23.482;2022-09-25T01:52:47;93687.91;;;10.43;63.53
11806;BME280;5960;42.602;23.482;2022-09-25T01:55:20;93697.28;;;10.45;63.60
11806;BME280;5960;42.602;23.482;2022-09-25T01:57:50;93693.25;;;10.34;63.70
11806;BME280;5960;42.602;23.482;2022-09-25T02:00:21;93703.88;;;10.26;63.87
11806;BME280;5960;42.602;23.482;2022-09-25T02:02:52;93709.84;;;10.20;64.22
11806;BME280;5960;42.602;23.482;2022-09-25T02:05:22;93704.22;;;10.23;64.18
11806;BME280;5960;42.602;23.482;2022-09-25T02:07:54;93705.44;;;10.35;64.24
11806;BME280;5960;42.602;23.482;2022-09-25T02:10:28;93706.78;;;10.31;63.76
11806;BME280;5960;42.602;23.482;2022-09-25T02:13:03;93694.78;;;10.29;64.32
11806;BME280;5960;42.602;23.482;2022-09-25T02:15:35;93694.88;;;10.20;64.43
11806;BME280;5960;42.602;23.482;2022-09-25T02:18:05;93685.44;;;10.11;64.52
11806;BME280;5960;42.602;23.482;2022-09-25T02:20:58;93677.88;;;10.08;64.45
11806;BME280;5960;42.602;23.482;2022-09-25T02:23:33;93672.88;;;9.98;64.68
11806;BME280;5960;42.602;23.482;2022-09-25T02:26:06;93679.63;;;10.01;64.37
11806;BME280;5960;42.602;23.482;2022-09-25T02:28:34;93675.97;;;10.02;64.05
11806;BME280;5960;42.602;23.482;2022-09-25T02:31:04;93675.50;;;9.83;65.11
11806;BME280;5960;42.602;23.482;2022-09-25T02:33:33;93683.75;;;9.80;65.72
11806;BME280;5960;42.602;23.482;2022-09-25T02:36:00;93684.28;;;9.75;65.94
11806;BME280;5960;42.602;23.482;2022-09-25T02:38:29;93694.84;;;9.90;65.31
11806;BME280;5960;42.602;23.482;2022-09-25T02:41:03;93703.53;;;9.91;65.14
11806;BME280;5960;42.602;23.482;2022-09-25T02:43:42;93699.19;;;9.83;65.65
11806;BME280;5960;42.602;23.482;2022-09-25T02:46:17;93702.81;;;9.82;65.79
11806;BME280;5960;42.602;23.482;2022-09-25T02:48:49;93697.19;;;9.85;65.54
11806;BME280;5960;42.602;23.482;2022-09-25T02:51:21;93693.09;;;9.83;65.94
11806;BME280;5960;42.602;23.482;2022-09-25T02:53:56;93686.59;;;9.93;65.64
11806;BME280;5960;42.602;23.482;2022-09-25T02:56:30;93682.31;;;9.92;65.73
11806;BME280;5960;42.602;23.482;2022-09-25T02:59:01;93682.22;;;9.86;66.24
11806;BME280;5960;42.602;23.482;2022-09-25T03:01:35;93696.47;;;9.91;66.02
11806;BME280;5960;42.602;23.482;2022-09-25T03:04:04;93688.59;;;9.91;65.67
11806;BME280;5960;42.602;23.482;2022-09-25T03:06:31;93678.00;;;10.00;65.72
11806;BME280;5960;42.602;23.482;2022-09-25T03:08:59;93687.22;;;9.81;66.62
11806;BME280;5960;42.602;23.482;2022-09-25T03:11:27;93686.91;;;9.75;66.41
11806;BME280;5960;42.602;23.482;2022-09-25T03:13:55;93689.38;;;9.77;66.40
11806;BME280;5960;42.602;23.482;2022-09-25T03:16:30;93688.41;;;9.78;66.61
11806;BME280;5960;42.602;23.482;2022-09-25T03:18:59;93697.88;;;9.79;66.88
11806;BME280;5960;42.602;23.482;2022-09-25T03:21:26;93702.44;;;9.85;66.89
11806;BME280;5960;42.602;23.482;2022-09-25T03:23:53;93696.91;;;9.80;66.66
11806;BME280;5960;42.602;23.482;2022-09-25T03:26:21;93697.72;;;9.81;66.76
11806;BME280;5960;42.602;23.482;2022-09-25T03:28:48;93692.28;;;9.82;66.84
11806;BME280;5960;42.602;23.482;2022-09-25T03:31:15;93686.88;;;9.99;66.04
11806;BME280;5960;42.602;23.482;2022-09-25T03:33:42;93686.59;;;9.93;66.21
11806;BME280;5960;42.602;23.482;2022-09-25T03:36:12;93678.13;;;9.83;66.57
11806;BME280;5960;42.602;23.482;2022-09-25T03:38:40;93675.31;;;9.70;66.90
11806;BME280;5960;42.602;23.482;2022-09-25T03:41:08;93673.31;;;9.72;67.00
11806;BME280;5960;42.602;23.482;2022-09-25T03:43:36;93665.06;;;9.75;67.00
11806;BME280;5960;42.602;23.482;2022-09-25T03:46:03;93669.41;;;9.68;67.23
11806;BME280;5960;42.602;23.482;2022-09-25T03:48:30;93669.75;;;9.64;67.11
11806;BME280;5960;42.602;23.482;2022-09-25T03:50:57;93676.91;;;9.56;67.42
11806;BME280;5960;42.602;23.482;2022-09-25T03:53:26;93685.22;;;9.59;67.18
11806;BME280;5960;42.602;23.482;2022-09-25T03:55:55;93682.59;;;9.59;67.26
11806;BME280;5960;42.602;23.482;2022-09-25T03:58:22;93689.00;;;9.42;67.69
11806;BME280;5960;42.602;23.482;2022-09-25T04:00:48;93689.44;;;9.30;67.82
11806;BME280;5960;42.602;23.482;2022-09-25T04:03:15;93681.00;;;9.35;68.09
11806;BME280;5960;42.602;23.482;2022-09-25T04:05:42;93675.16;;;9.25;68.44
11806;BME280;5960;42.602;23.482;2022-09-25T04:08:10;93682.34;;;9.31;68.17
11806;BME280;5960;42.602;23.482;2022-09-25T04:10:38;93691.31;;;9.37;67.75
11806;BME280;5960;42.602;23.482;2022-09-25T04:13:05;93700.69;;;9.39;67.98
11806;BME280;5960;42.602;23.482;2022-09-25T04:15:32;93689.34;;;9.39;67.71
11806;BME280;5960;42.602;23.482;2022-09-25T04:17:59;93699.09;;;9.30;68.09
11806;BME280;5960;42.602;23.482;2022-09-25T04:20:26;93698.41;;;9.36;67.70
11806;BME280;5960;42.602;23.482;2022-09-25T04:22:53;93697.97;;;9.32;67.89
11806;BME280;5960;42.602;23.482;2022-09-25T04:25:19;93709.72;;;9.37;67.57
11806;BME280;5960;42.602;23.482;2022-09-25T04:27:52;93712.25;;;9.30;67.97
11806;BME280;5960;42.602;23.482;2022-09-25T04:30:20;93710.06;;;9.33;67.88
11806;BME280;5960;42.602;23.482;2022-09-25T04:32:47;93709.47;;;9.31;67.75
11806;BME280;5960;42.602;23.482;2022-09-25T04:35:31;93696.66;;;9.28;68.04
11806;BME280;5960;42.602;23.482;2022-09-25T04:37:57;93704.22;;;9.31;67.85
11806;BME280;5960;42.602;23.482;2022-09-25T04:40:24;93705.19;;;9.30;68.34
11806;BME280;5960;42.602;23.482;2022-09-25T04:42:55;93700.50;;;9.41;67.73
11806;BME280;5960;42.602;23.482;2022-09-25T04:45:22;93693.59;;;9.40;68.07
11806;BME280;5960;42.602;23.482;2022-09-25T04:47:51;93697.06;;;9.40;68.19
11806;BME280;5960;42.602;23.482;2022-09-25T04:50:18;93698.13;;;9.54;67.71
11806;BME280;5960;42.602;23.482;2022-09-25T04:52:45;93696.34;;;9.70;67.40
11806;BME280;5960;42.602;23.482;2022-09-25T04:55:11;93700.97;;;9.68;67.15
11806;BME280;5960;42.602;23.482;2022-09-25T04:57:38;93704.25;;;9.70;67.11
11806;BME280;5960;42.602;23.482;2022-09-25T05:00:08;93703.28;;;9.62;67.41
11806;BME280;5960;42.602;23.482;2022-09-25T05:02:35;93695.41;;;9.62;67.29
11806;BME280;5960;42.602;23.482;2022-09-25T05:05:02;93688.66;;;9.83;66.76
11806;BME280;5960;42.602;23.482;2022-09-25T05:07:28;93690.28;;;9.84;66.99
11806;BME280;5960;42.602;23.482;2022-09-25T05:09:55;93691.41;;;10.05;66.15
11806;BME280;5960;42.602;23.482;2022-09-25T05:12:23;93691.06;;;10.08;66.67
11806;BME280;5960;42.602;23.482;2022-09-25T05:14:49;93696.53;;;10.21;66.40
11806;BME280;5960;42.602;23.482;2022-09-25T05:17:17;93709.22;;;10.33;66.12
11806;BME280;5960;42.602;23.482;2022-09-25T05:19:44;93705.44;;;10.50;65.37
11806;BME280;5960;42.602;23.482;2022-09-25T05:22:11;93712.97;;;10.68;64.74
11806;BME280;5960;42.602;23.482;2022-09-25T05:24:37;93714.25;;;10.73;65.01
11806;BME280;5960;42.602;23.482;2022-09-25T05:27:04;93704.41;;;10.81;64.26
11806;BME280;5960;42.602;23.482;2022-09-25T05:29:31;93706.31;;;11.03;63.68
11806;BME280;5960;42.602;23.482;2022-09-25T05:31:59;93701.72;;;11.11;62.52
11806;BME280;5960;42.602;23.482;2022-09-25T05:34:27;93697.59;;;11.24;62.58
11806;BME280;5960;42.602;23.482;2022-09-25T05:36:53;93684.56;;;11.37;63.13
11806;BME280;5960;42.602;23.482;2022-09-25T05:39:20;93687.56;;;11.56;62.77
11806;BME280;5960;42.602;23.482;2022-09-25T05:41:47;93700.75;;;11.78;62.24
11806;BME280;5960;42.602;23.482;2022-09-25T05:44:14;93695.09;;;12.02;61.56
11806;BME280;5960;42.602;23.482;2022-09-25T05:46:40;93681.91;;;12.09;61.53
11806;BME280;5960;42.602;23.482;2022-09-25T05:49:07;93677.53;;;12.23;62.20
11806;BME280;5960;42.602;23.482;2022-09-25T05:51:35;93679.25;;;12.38;61.41
11806;BME280;5960;42.602;23.482;2022-09-25T05:54:02;93684.03;;;12.56;61.10
11806;BME280;5960;42.602;23.482;2022-09-25T05:56:29;93689.34;;;12.62;60.42
11806;BME280;5960;42.602;23.482;2022-09-25T05:58:55;93689.59;;;12.74;59.71
11806;BME280;5960;42.602;23.482;2022-09-25T06:01:23;93699.00;;;12.84;59.63
11806;BME280;5960;42.602;23.482;2022-09-25T06:03:50;93710.06;;;13.01;58.71
11806;BME280;5960;42.602;23.482;2022-09-25T06:06:17;93716.66;;;13.25;58.48
11806;BME280;5960;42.602;23.482;2022-09-25T06:08:46;93718.69;;;13.36;58.43
11806;BME280;5960;42.602;23.482;2022-09-25T06:11:13;93718.56;;;13.51;58.05
11806;BME280;5960;42.602;23.482;2022-09-25T06:13:40;93717.19;;;13.69;58.05
11806;BME280;5960;42.602;23.482;2022-09-25T06:16:14;93710.28;;;13.88;57.44
11806;BME280;5960;42.602;23.482;2022-09-25T06:18:44;93705.78;;;14.02;56.26
11806;BME280;5960;42.602;23.482;2022-09-25T06:21:10;93695.81;;;14.11;56.66
11806;BME280;5960;42.602;23.482;2022-09-25T06:23:37;93710.06;;;14.30;55.62
11806;BME280;5960;42.602;23.482;2022-09-25T06:26:05;93700.03;;;14.45;55.28
11806;BME280;5960;42.602;23.482;2022-09-25T06:28:33;93698.56;;;14.63;55.72
11806;BME280;5960;42.602;23.482;2022-09-25T06:31:00;93694.47;;;14.87;54.97
11806;BME280;5960;42.602;23.482;2022-09-25T06:33:27;93699.72;;;15.08;54.92
11806;BME280;5960;42.602;23.482;2022-09-25T06:35:54;93703.47;;;15.32;54.15
11806;BME280;5960;42.602;23.482;2022-09-25T06:38:21;93697.47;;;15.50;53.75
11806;BME280;5960;42.602;23.482;2022-09-25T06:40:47;93706.09;;;15.71;52.86
11806;BME280;5960;42.602;23.482;2022-09-25T06:43:16;93707.41;;;15.93;52.17
11806;BME280;5960;42.602;23.482;2022-09-25T06:45:43;93709.09;;;16.13;50.53
11806;BME280;5960;42.602;23.482;2022-09-25T06:48:13;93712.63;;;16.32;50.39
11806;BME280;5960;42.602;23.482;2022-09-25T06:50:42;93709.56;;;16.54;50.43
11806;BME280;5960;42.602;23.482;2022-09-25T06:53:11;93714.22;;;16.77;49.64
11806;BME280;5960;42.602;23.482;2022-09-25T06:55:38;93717.31;;;16.99;48.63
11806;BME280;5960;42.602;23.482;2022-09-25T06:58:06;93719.22;;;17.11;48.08
11806;BME280;5960;42.602;23.482;2022-09-25T07:00:34;93722.53;;;17.25;46.68
11806;BME280;5960;42.602;23.482;2022-09-25T07:03:01;93715.72;;;17.29;47.13
11806;BME280;5960;42.602;23.482;2022-09-25T07:05:45;93711.25;;;17.41;47.43
11806;BME280;5960;42.602;23.482;2022-09-25T07:08:13;93705.63;;;17.50;46.73
11806;BME280;5960;42.602;23.482;2022-09-25T07:10:46;93702.69;;;17.39;47.40
11806;BME280;5960;42.602;23.482;2022-09-25T07:13:13;93702.56;;;17.34;47.62
11806;BME280;5960;42.602;23.482;2022-09-25T07:15:42;93708.16;;;17.44;47.37
11806;BME280;5960;42.602;23.482;2022-09-25T07:18:09;93721.66;;;17.31;47.05
11806;BME280;5960;42.602;23.482;2022-09-25T07:20:36;93721.19;;;17.34;47.55
11806;BME280;5960;42.602;23.482;2022-09-25T07:23:03;93727.66;;;17.57;46.99
11806;BME280;5960;42.602;23.482;2022-09-25T07:25:30;93731.66;;;17.78;46.42
11806;BME280;5960;42.602;23.482;2022-09-25T07:27:57;93738.50;;;18.04;45.92
11806;BME280;5960;42.602;23.482;2022-09-25T07:30:26;93733.91;;;18.35;44.82
11806;BME280;5960;42.602;23.482;2022-09-25T07:32:54;93742.38;;;18.56;43.65
11806;BME280;5960;42.602;23.482;2022-09-25T07:35:21;93744.47;;;18.78;43.57
11806;BME280;5960;42.602;23.482;2022-09-25T07:37:48;93743.78;;;18.94;42.56
11806;BME280;5960;42.602;23.482;2022-09-25T07:40:14;93743.44;;;18.91;42.07
11806;BME280;5960;42.602;23.482;2022-09-25T07:42:41;93739.41;;;19.00;42.66
11806;BME280;5960;42.602;23.482;2022-09-25T07:45:09;93732.28;;;19.18;41.66
11806;BME280;5960;42.602;23.482;2022-09-25T07:47:36;93751.53;;;19.32;41.93
11806;BME280;5960;42.602;23.482;2022-09-25T07:50:05;93743.97;;;19.40;40.49
11806;BME280;5960;42.602;23.482;2022-09-25T07:52:32;93732.59;;;19.45;39.60
11806;BME280;5960;42.602;23.482;2022-09-25T07:54:58;93724.38;;;19.64;40.17
11806;BME280;5960;42.602;23.482;2022-09-25T07:57:25;93717.66;;;19.90;39.71
11806;BME280;5960;42.602;23.482;2022-09-25T07:59:52;93711.91;;;19.69;39.38
11806;BME280;5960;42.602;23.482;2022-09-25T08:02:19;93699.84;;;19.84;40.36
11806;BME280;5960;42.602;23.482;2022-09-25T08:04:46;93698.00;;;20.13;39.69
11806;BME280;5960;42.602;23.482;2022-09-25T08:07:14;93690.88;;;20.36;38.87
11806;BME280;5960;42.602;23.482;2022-09-25T08:09:40;93683.28;;;20.50;38.61
11806;BME280;5960;42.602;23.482;2022-09-25T08:12:09;93679.66;;;20.39;38.31
11806;BME280;5960;42.602;23.482;2022-09-25T08:14:37;93677.72;;;20.35;38.54
11806;BME280;5960;42.602;23.482;2022-09-25T08:19:30;93683.28;;;20.67;37.54
11806;BME280;5960;42.602;23.482;2022-09-25T08:21:57;93694.38;;;20.93;37.64
11806;BME280;5960;42.602;23.482;2022-09-25T08:24:25;93689.75;;;21.11;36.98
11806;BME280;5960;42.602;23.482;2022-09-25T08:26:53;93697.31;;;21.36;37.87
11806;BME280;5960;42.602;23.482;2022-09-25T08:29:19;93692.44;;;21.77;35.76
11806;BME280;5960;42.602;23.482;2022-09-25T08:31:46;93692.72;;;22.08;34.91
11806;BME280;5960;42.602;23.482;2022-09-25T08:34:13;93686.16;;;22.27;35.18
11806;BME280;5960;42.602;23.482;2022-09-25T08:36:40;93670.94;;;22.75;34.21
11806;BME280;5960;42.602;23.482;2022-09-25T08:39:07;93669.75;;;23.09;32.60
11806;BME280;5960;42.602;23.482;2022-09-25T08:41:42;93669.34;;;23.22;33.71
11806;BME280;5960;42.602;23.482;2022-09-25T08:44:18;93670.22;;;23.49;32.98
11806;BME280;5960;42.602;23.482;2022-09-25T08:46:49;93670.28;;;23.69;33.22
11806;BME280;5960;42.602;23.482;2022-09-25T08:49:43;93672.53;;;24.29;32.63
11806;BME280;5960;42.602;23.482;2022-09-25T08:52:13;93674.66;;;24.58;31.99
11806;BME280;5960;42.602;23.482;2022-09-25T08:54:41;93672.22;;;24.83;31.14
11806;BME280;5960;42.602;23.482;2022-09-25T08:57:15;93665.47;;;24.90;29.97
11806;BME280;5960;42.602;23.482;2022-09-25T08:59:48;93677.63;;;24.57;30.70
11806;BME280;5960;42.602;23.482;2022-09-25T09:02:18;93661.41;;;24.93;30.33
11806;BME280;5960;42.602;23.482;2022-09-25T09:04:48;93661.69;;;24.97;29.75
11806;BME280;5960;42.602;23.482;2022-09-25T09:07:22;93656.06;;;24.77;29.73
11806;BME280;5960;42.602;23.482;2022-09-25T09:09:55;93660.63;;;24.77;30.36
11806;BME280;5960;42.602;23.482;2022-09-25T09:12:30;93660.91;;;24.86;29.56
11806;BME280;5960;42.602;23.482;2022-09-25T09:17:52;93649.59;;;24.78;29.95
11806;BME280;5960;42.602;23.482;2022-09-25T09:20:23;93652.47;;;25.08;30.44
11806;BME280;5960;42.602;23.482;2022-09-25T09:22:53;93646.41;;;25.42;30.22
11806;BME280;5960;42.602;23.482;2022-09-25T09:25:26;93640.78;;;25.89;29.23
11806;BME280;5960;42.602;23.482;2022-09-25T09:28:11;93639.25;;;26.17;28.80
11806;BME280;5960;42.602;23.482;2022-09-25T09:30:52;93627.31;;;26.53;27.46
11806;BME280;5960;42.602;23.482;2022-09-25T09:33:34;93630.59;;;26.50;28.65
11806;BME280;5960;42.602;23.482;2022-09-25T09:36:08;93619.59;;;26.95;27.68
11806;BME280;5960;42.602;23.482;2022-09-25T09:38:43;93632.56;;;27.22;26.57
11806;BME280;5960;42.602;23.482;2022-09-25T09:41:23;93625.72;;;27.06;26.01
11806;BME280;5960;42.602;23.482;2022-09-25T09:44:06;93627.91;;;25.70;27.63
11806;BME280;5960;42.602;23.482;2022-09-25T09:46:44;93625.88;;;25.51;28.15
11806;BME280;5960;42.602;23.482;2022-09-25T09:49:29;93622.78;;;25.18;28.96
11806;BME280;5960;42.602;23.482;2022-09-25T09:52:01;93632.34;;;25.56;29.30
11806;BME280;5960;42.602;23.482;2022-09-25T09:54:34;93623.06;;;26.07;28.62
11806;BME280;5960;42.602;23.482;2022-09-25T09:57:11;93626.88;;;26.06;27.75
11806;BME280;5960;42.602;23.482;2022-09-25T09:59:43;93618.56;;;25.97;27.71
11806;BME280;5960;42.602;23.482;2022-09-25T10:02:19;93624.28;;;25.90;29.00
11806;BME280;5960;42.602;23.482;2022-09-25T10:04:52;93625.94;;;25.36;29.01
11806;BME280;5960;42.602;23.482;2022-09-25T10:07:22;93632.91;;;24.61;29.77
11806;BME280;5960;42.602;23.482;2022-09-25T10:09:49;93625.09;;;24.54;30.29
11806;BME280;5960;42.602;23.482;2022-09-25T10:12:23;93617.81;;;24.60;29.80
11806;BME280;5960;42.602;23.482;2022-09-25T10:14:53;93624.06;;;24.29;29.80
11806;BME280;5960;42.602;23.482;2022-09-25T10:17:21;93621.34;;;24.71;29.26
11806;BME280;5960;42.602;23.482;2022-09-25T10:19:52;93610.72;;;25.00;29.00
11806;BME280;5960;42.602;23.482;2022-09-25T10:22:21;93602.72;;;25.40;28.81
11806;BME280;5960;42.602;23.482;2022-09-25T10:24:54;93603.28;;;25.37;28.79
11806;BME280;5960;42.602;23.482;2022-09-25T10:27:28;93607.34;;;25.84;29.35
11806;BME280;5960;42.602;23.482;2022-09-25T10:30:18;93600.81;;;26.55;28.92
11806;BME280;5960;42.602;23.482;2022-09-25T10:32:54;93595.78;;;27.21;27.50
11806;BME280;5960;42.602;23.482;2022-09-25T10:35:24;93595.75;;;27.65;27.32
11806;BME280;5960;42.602;23.482;2022-09-25T10:37:53;93589.38;;;27.55;26.50
11806;BME280;5960;42.602;23.482;2022-09-25T10:40:24;93590.31;;;28.03;26.38
11806;BME280;5960;42.602;23.482;2022-09-25T10:43:05;93576.91;;;28.12;26.09
11806;BME280;5960;42.602;23.482;2022-09-25T10:45:34;93578.44;;;27.99;26.57
11806;BME280;5960;42.602;23.482;2022-09-25T10:48:28;93580.31;;;28.50;26.30
11806;BME280;5960;42.602;23.482;2022-09-25T10:51:13;93564.91;;;28.93;25.56
11806;BME280;5960;42.602;23.482;2022-09-25T10:53:43;93563.78;;;29.22;24.83
11806;BME280;5960;42.602;23.482;2022-09-25T10:56:13;93573.19;;;29.52;25.17
11806;BME280;5960;42.602;23.482;2022-09-25T10:58:43;93565.31;;;29.42;24.06
11806;BME280;5960;42.602;23.482;2022-09-25T11:01:14;93557.94;;;29.28;24.57
11806;BME280;5960;42.602;23.482;2022-09-25T11:03:47;93563.81;;;28.80;25.47
11806;BME280;5960;42.602;23.482;2022-09-25T11:06:18;93568.00;;;29.28;25.09
11806;BME280;5960;42.602;23.482;2022-09-25T11:08:48;93561.13;;;29.58;24.89
11806;BME280;5960;42.602;23.482;2022-09-25T11:11:21;93556.91;;;29.52;24.98
11806;BME280;5960;42.602;23.482;2022-09-25T11:13:53;93564.03;;;29.85;24.91
11806;BME280;5960;42.602;23.482;2022-09-25T11:16:40;93552.66;;;29.97;24.31
11806;BME280;5960;42.602;23.482;2022-09-25T11:19:11;93544.50;;;30.20;24.53
11806;BME280;5960;42.602;23.482;2022-09-25T11:21:46;93556.59;;;30.36;23.99
11806;BME280;5960;42.602;23.482;2022-09-25T11:24:20;93555.66;;;30.41;24.11
11806;BME280;5960;42.602;23.482;2022-09-25T11:26:53;93555.91;;;30.08;23.12
11806;BME280;5960;42.602;23.482;2022-09-25T11:29:25;93554.84;;;29.35;24.15
11806;BME280;5960;42.602;23.482;2022-09-25T11:32:04;93550.97;;;28.86;25.00
11806;BME280;5960;42.602;23.482;2022-09-25T11:34:43;93551.44;;;29.16;24.20
11806;BME280;5960;42.602;23.482;2022-09-25T11:37:21;93541.44;;;29.53;24.35
11806;BME280;5960;42.602;23.482;2022-09-25T11:39:55;93548.38;;;29.82;23.81
11806;BME280;5960;42.602;23.482;2022-09-25T11:42:49;93537.59;;;30.13;23.85
11806;BME280;5960;42.602;23.482;2022-09-25T11:45:21;93534.22;;;30.39;24.03
11806;BME280;5960;42.602;23.482;2022-09-25T11:47:56;93540.63;;;30.43;22.82
11806;BME280;5960;42.602;23.482;2022-09-25T11:50:32;93539.63;;;30.62;23.15
11806;BME280;5960;42.602;23.482;2022-09-25T11:53:09;93527.84;;;30.75;22.65
11806;BME280;5960;42.602;23.482;2022-09-25T11:55:54;93530.44;;;30.49;22.38
11806;BME280;5960;42.602;23.482;2022-09-25T11:58:45;93520.75;;;30.66;21.71
11806;BME280;5960;42.602;23.482;2022-09-25T12:01:22;93523.47;;;30.34;21.78
11806;BME280;5960;42.602;23.482;2022-09-25T12:03:58;93506.84;;;30.04;23.21
11806;BME280;5960;42.602;23.482;2022-09-25T12:06:50;93508.63;;;30.40;22.95
11806;BME280;5960;42.602;23.482;2022-09-25T12:09:36;93501.28;;;30.81;22.68
11806;BME280;5960;42.602;23.482;2022-09-25T12:12:16;93510.06;;;31.18;22.44
11806;BME280;5960;42.602;23.482;2022-09-25T12:14:49;93507.34;;;31.45;22.37
11806;BME280;5960;42.602;23.482;2022-09-25T12:17:27;93506.72;;;31.57;21.14
11806;BME280;5960;42.602;23.482;2022-09-25T12:20:02;93497.56;;;31.70;21.94
11806;BME280;5960;42.602;23.482;2022-09-25T12:22:41;93490.84;;;31.59;22.05
11806;BME280;5960;42.602;23.482;2022-09-25T12:25:24;93497.38;;;31.22;21.45
11806;BME280;5960;42.602;23.482;2022-09-25T12:27:57;93491.66;;;31.24;22.38
11806;BME280;5960;42.602;23.482;2022-09-25T12:30:30;93493.88;;;31.57;22.07
11806;BME280;5960;42.602;23.482;2022-09-25T12:33:21;93481.41;;;31.30;21.29
11806;BME280;5960;42.602;23.482;2022-09-25T12:35:54;93477.38;;;30.60;22.39
11806;BME280;5960;42.602;23.482;2022-09-25T12:38:31;93479.66;;;30.76;22.18
11806;BME280;5960;42.602;23.482;2022-09-25T12:41:07;93478.13;;;30.84;22.52
11806;BME280;5960;42.602;23.482;2022-09-25T12:43:41;93479.94;;;30.57;22.41
11806;BME280;5960;42.602;23.482;2022-09-25T12:46:12;93476.00;;;30.09;22.07
11806;BME280;5960;42.602;23.482;2022-09-25T12:48:44;93476.22;;;30.12;22.78
11806;BME280;5960;42.602;23.482;2022-09-25T12:51:19;93461.81;;;30.52;22.43
11806;BME280;5960;42.602;23.482;2022-09-25T12:53:50;93467.72;;;30.95;22.67
11806;BME280;5960;42.602;23.482;2022-09-25T12:56:24;93446.34;;;31.19;21.66
11806;BME280;5960;42.602;23.482;2022-09-25T12:58:58;93445.03;;;31.61;23.64
11806;BME280;5960;42.602;23.482;2022-09-25T13:01:31;93451.13;;;31.75;21.69
11806;BME280;5960;42.602;23.482;2022-09-25T13:04:11;93445.50;;;31.89;21.34
11806;BME280;5960;42.602;23.482;2022-09-25T13:06:48;93445.97;;;31.91;21.62
11806;BME280;5960;42.602;23.482;2022-09-25T13:09:23;93450.81;;;31.86;22.39
11806;BME280;5960;42.602;23.482;2022-09-25T13:11:58;93445.78;;;32.05;22.10
11806;BME280;5960;42.602;23.482;2022-09-25T13:14:31;93436.31;;;32.50;21.64
11806;BME280;5960;42.602;23.482;2022-09-25T13:17:00;93425.38;;;32.89;21.00
11806;BME280;5960;42.602;23.482;2022-09-25T13:19:28;93425.41;;;33.31;20.58
11806;BME280;5960;42.602;23.482;2022-09-25T13:22:01;93422.25;;;33.97;19.81
11806;BME280;5960;42.602;23.482;2022-09-25T13:24:35;93412.00;;;34.77;19.83
11806;BME280;5960;42.602;23.482;2022-09-25T13:27:04;93416.19;;;34.99;19.02
11806;BME280;5960;42.602;23.482;2022-09-25T13:29:32;93408.44;;;35.42;18.83